PWSweather.com
Personal Weather Stations
Station Observations
ESTGRALPAZ
Santa Fe, Santa FeAR 3000

Santa FeSanta FeAR 3000

Lat: -31.6280555556, Lon: -60.6908333333

Elevation: 69

Station Type: WH1081

http://www.estaciongralpaz.com.ar

Latest ConditionsUpdated 1:59:01 AM GMT-03:57 Thursday, Apr 25, 2019
Currently Today's Max Today's Min Today's Average
Temperature 64.4°F18.0°C 64.4°F18.0°C 63.9°F17.7°C 64.2°F17.9°C
Dew Point 63.6°F17.6°C 63.6°F17.6°C 63.0°F17.2°C 63.4°F17.4°C
Winds 5.4 mph SE8.7 kmh SE 11.4 mph -18.3 kmh - - 5.1 mph 8.2 kmh
Wind Gusts 15.9 mph25.6 kmh 15.9 mph25.6 kmh - -
Humidity 97% 97% 97% 97%
Pressure 29.93 in1013.5 mb 29.96 in1014.6 mb 29.91 in1012.9 mb -
Precipitation - 0.17 in4.3 mm - -
Hour Temp Dew Point Humidity Winds Wind Gusts Pressure Precip Precip Rate Daily Precip Total
01:59 AM 64.4°F18.0°C 63.6°F17.6°C 97% 5.4 mph SE8.7 kmh SE 15.9 mph25.6 kmh 29.93 in1013.5 mb 0.10 in2.5 mm 0.00 in0.0 mm 0.17 in4.3 mm
01:58 AM 64.4°F18.0°C 63.6°F17.6°C 97% 3.1 mph SE5.0 kmh SE 15.9 mph25.6 kmh 29.92 in1013.2 mb 0.10 in2.5 mm 0.00 in0.0 mm 0.17 in4.3 mm
01:57 AM 64.4°F18.0°C 63.6°F17.6°C 97% 4.5 mph SE7.2 kmh SE 15.9 mph25.6 kmh 29.92 in1013.2 mb 0.10 in2.5 mm 0.00 in0.0 mm 0.17 in4.3 mm
01:56 AM 64.4°F18.0°C 63.6°F17.6°C 97% 6.0 mph SE9.7 kmh SE 15.9 mph25.6 kmh 29.93 in1013.5 mb 0.12 in3.0 mm 0.00 in0.0 mm 0.17 in4.3 mm
01:55 AM 64.4°F18.0°C 63.6°F17.6°C 97% 4.5 mph SE7.2 kmh SE 15.9 mph25.6 kmh 29.92 in1013.2 mb 0.12 in3.0 mm 0.00 in0.0 mm 0.17 in4.3 mm
01:54 AM 64.4°F18.0°C 63.6°F17.6°C 97% 6.9 mph SE11.1 kmh SE 15.9 mph25.6 kmh 29.92 in1013.2 mb 0.12 in3.0 mm 0.00 in0.0 mm 0.17 in4.3 mm
01:53 AM 64.4°F18.0°C 63.6°F17.6°C 97% 5.4 mph SE8.7 kmh SE 15.9 mph25.6 kmh 29.92 in1013.2 mb 0.12 in3.0 mm 0.00 in0.0 mm 0.17 in4.3 mm
01:52 AM 64.4°F18.0°C 63.6°F17.6°C 97% 6.9 mph SE11.1 kmh SE 15.9 mph25.6 kmh 29.92 in1013.2 mb 0.12 in3.0 mm 0.00 in0.0 mm 0.17 in4.3 mm
01:51 AM 64.4°F18.0°C 63.6°F17.6°C 97% 7.6 mph ESE12.2 kmh ESE 15.9 mph25.6 kmh 29.92 in1013.2 mb 0.12 in3.0 mm 1.20 in30.5 mm 0.17 in4.3 mm
01:50 AM 64.4°F18.0°C 63.6°F17.6°C 97% 5.4 mph ESE8.7 kmh ESE 15.9 mph25.6 kmh 29.91 in1012.9 mb 0.10 in2.5 mm 0.00 in0.0 mm 0.16 in4.1 mm
01:49 AM 64.4°F18.0°C 63.6°F17.6°C 97% 11.4 mph SE18.3 kmh SE 15.9 mph25.6 kmh 29.91 in1012.9 mb 0.10 in2.5 mm 0.60 in15.2 mm 0.16 in4.1 mm
01:48 AM 64.4°F18.0°C 63.6°F17.6°C 97% 5.4 mph ESE8.7 kmh ESE 10.7 mph17.2 kmh 29.91 in1012.9 mb 0.09 in2.3 mm 0.00 in0.0 mm 0.14 in3.6 mm
01:47 AM 64.4°F18.0°C 63.6°F17.6°C 97% 6.0 mph ESE9.7 kmh ESE 10.7 mph17.2 kmh 29.92 in1013.2 mb 0.09 in2.3 mm 1.80 in45.7 mm 0.14 in3.6 mm
01:46 AM 64.4°F18.0°C 63.6°F17.6°C 97% 4.5 mph ESE7.2 kmh ESE 10.7 mph17.2 kmh 29.92 in1013.2 mb 0.06 in1.5 mm 0.00 in0.0 mm 0.12 in3.0 mm
01:45 AM 64.4°F18.0°C 63.6°F17.6°C 97% 3.1 mph ESE5.0 kmh ESE 10.7 mph17.2 kmh 29.92 in1013.2 mb 0.06 in1.5 mm 1.80 in45.7 mm 0.12 in3.0 mm
01:44 AM 64.4°F18.0°C 63.6°F17.6°C 97% 4.5 mph ESE7.2 kmh ESE 10.7 mph17.2 kmh 29.91 in1012.9 mb 0.03 in0.8 mm 0.00 in0.0 mm 0.09 in2.3 mm
01:43 AM 64.4°F18.0°C 63.6°F17.6°C 97% 4.5 mph E7.2 kmh E 10.7 mph17.2 kmh 29.92 in1013.2 mb 0.03 in0.8 mm 1.20 in30.5 mm 0.09 in2.3 mm
01:42 AM 64.4°F18.0°C 63.6°F17.6°C 97% 6.9 mph E11.1 kmh E 13.0 mph20.9 kmh 29.92 in1013.2 mb 0.01 in0.3 mm 0.00 in0.0 mm 0.07 in1.8 mm
01:41 AM 64.4°F18.0°C 63.6°F17.6°C 97% 3.8 mph ESE6.1 kmh ESE 13.0 mph20.9 kmh 29.93 in1013.5 mb 0.01 in0.3 mm 0.00 in0.0 mm 0.07 in1.8 mm
01:40 AM 64.4°F18.0°C 63.6°F17.6°C 97% 3.1 mph ESE5.0 kmh ESE 13.0 mph20.9 kmh 29.93 in1013.5 mb 0.01 in0.3 mm 0.00 in0.0 mm 0.07 in1.8 mm
01:39 AM 64.4°F18.0°C 63.6°F17.6°C 97% 3.1 mph ESE5.0 kmh ESE 13.0 mph20.9 kmh 29.96 in1014.6 mb 0.01 in0.3 mm 0.00 in0.0 mm 0.07 in1.8 mm
01:38 AM 64.4°F18.0°C 63.6°F17.6°C 97% 2.2 mph ESE3.5 kmh ESE 13.0 mph20.9 kmh 29.96 in1014.6 mb 0.01 in0.3 mm 0.00 in0.0 mm 0.07 in1.8 mm
01:37 AM 64.4°F18.0°C 63.6°F17.6°C 97% 1.6 mph ESE2.6 kmh ESE 13.6 mph21.9 kmh 29.96 in1014.6 mb 0.01 in0.3 mm 0.00 in0.0 mm 0.07 in1.8 mm
01:36 AM 64.4°F18.0°C 63.6°F17.6°C 97% 3.8 mph SE6.1 kmh SE 14.5 mph23.3 kmh 29.96 in1014.6 mb 0.01 in0.3 mm 0.00 in0.0 mm 0.07 in1.8 mm
01:35 AM 64.4°F18.0°C 63.6°F17.6°C 97% 1.6 mph SE2.6 kmh SE 14.5 mph23.3 kmh 29.95 in1014.2 mb 0.01 in0.3 mm 0.00 in0.0 mm 0.07 in1.8 mm
01:34 AM 64.2°F17.9°C 63.4°F17.4°C 97% 1.6 mph SE2.6 kmh SE 14.5 mph23.3 kmh 29.94 in1013.9 mb 0.01 in0.3 mm 0.00 in0.0 mm 0.07 in1.8 mm
01:33 AM 64.2°F17.9°C 63.4°F17.4°C 97% 4.5 mph SE7.2 kmh SE 14.5 mph23.3 kmh 29.93 in1013.5 mb 0.01 in0.3 mm 0.00 in0.0 mm 0.07 in1.8 mm
01:32 AM 64.2°F17.9°C 63.4°F17.4°C 97% 6.9 mph SE11.1 kmh SE 14.5 mph23.3 kmh 29.92 in1013.2 mb 0.01 in0.3 mm 0.00 in0.0 mm 0.07 in1.8 mm
01:31 AM 64.2°F17.9°C 63.4°F17.4°C 97% 6.9 mph SE11.1 kmh SE 14.5 mph23.3 kmh 29.91 in1012.9 mb 0.01 in0.3 mm 0.00 in0.0 mm 0.07 in1.8 mm
01:30 AM 64.2°F17.9°C 63.4°F17.4°C 97% 4.5 mph ESE7.2 kmh ESE 14.5 mph23.3 kmh 29.91 in1012.9 mb 0.01 in0.3 mm 0.00 in0.0 mm 0.07 in1.8 mm
01:29 AM 64.2°F17.9°C 63.4°F17.4°C 97% 4.5 mph ESE7.2 kmh ESE 14.5 mph23.3 kmh 29.91 in1012.9 mb 0.01 in0.3 mm 0.00 in0.0 mm 0.07 in1.8 mm
01:28 AM 64.2°F17.9°C 63.4°F17.4°C 97% 6.0 mph ESE9.7 kmh ESE 14.5 mph23.3 kmh 29.92 in1013.2 mb 0.01 in0.3 mm 0.00 in0.0 mm 0.07 in1.8 mm
01:27 AM 64.2°F17.9°C 63.4°F17.4°C 97% 7.6 mph ESE12.2 kmh ESE 14.5 mph23.3 kmh 29.92 in1013.2 mb 0.01 in0.3 mm 0.00 in0.0 mm 0.07 in1.8 mm
01:26 AM 64.2°F17.9°C 63.4°F17.4°C 97% 6.9 mph ESE11.1 kmh ESE 13.0 mph20.9 kmh 29.92 in1013.2 mb 0.03 in0.8 mm 0.00 in0.0 mm 0.07 in1.8 mm
01:25 AM 64.2°F17.9°C 63.4°F17.4°C 97% 8.3 mph ESE13.4 kmh ESE 13.0 mph20.9 kmh 29.91 in1012.9 mb 0.03 in0.8 mm 0.00 in0.0 mm 0.07 in1.8 mm
01:24 AM 64.2°F17.9°C 63.4°F17.4°C 97% 4.5 mph ESE7.2 kmh ESE 13.0 mph20.9 kmh 29.92 in1013.2 mb 0.03 in0.8 mm 0.00 in0.0 mm 0.07 in1.8 mm
01:23 AM 64.2°F17.9°C 63.4°F17.4°C 97% 6.9 mph ESE11.1 kmh ESE 13.0 mph20.9 kmh 29.92 in1013.2 mb 0.03 in0.8 mm 0.00 in0.0 mm 0.07 in1.8 mm
01:22 AM 64.2°F17.9°C 63.4°F17.4°C 97% 9.8 mph ESE15.8 kmh ESE 13.0 mph20.9 kmh 29.92 in1013.2 mb 0.03 in0.8 mm 0.00 in0.0 mm 0.07 in1.8 mm
01:21 AM 64.2°F17.9°C 63.4°F17.4°C 97% 3.8 mph SE6.1 kmh SE 11.4 mph18.3 kmh 29.92 in1013.2 mb 0.03 in0.8 mm 0.00 in0.0 mm 0.07 in1.8 mm
01:20 AM 64.2°F17.9°C 63.4°F17.4°C 97% 6.0 mph SE9.7 kmh SE 11.4 mph18.3 kmh 29.93 in1013.5 mb 0.03 in0.8 mm 0.00 in0.0 mm 0.07 in1.8 mm
01:19 AM 64.2°F17.9°C 63.4°F17.4°C 97% 5.4 mph SE8.7 kmh SE 11.4 mph18.3 kmh 29.93 in1013.5 mb 0.03 in0.8 mm 0.00 in0.0 mm 0.07 in1.8 mm
01:18 AM 64.2°F17.9°C 63.4°F17.4°C 97% 5.4 mph SE8.7 kmh SE 11.4 mph18.3 kmh 29.93 in1013.5 mb 0.03 in0.8 mm 0.00 in0.0 mm 0.07 in1.8 mm
01:17 AM 64.2°F17.9°C 63.4°F17.4°C 97% 3.8 mph SE6.1 kmh SE 11.4 mph18.3 kmh 29.93 in1013.5 mb 0.04 in1.0 mm 0.00 in0.0 mm 0.07 in1.8 mm
01:16 AM 64.2°F17.9°C 63.4°F17.4°C 97% 7.6 mph SE12.2 kmh SE 11.4 mph18.3 kmh 29.93 in1013.5 mb 0.04 in1.0 mm 0.00 in0.0 mm 0.07 in1.8 mm
01:15 AM 64.2°F17.9°C 63.4°F17.4°C 97% 5.4 mph ESE8.7 kmh ESE 11.4 mph18.3 kmh 29.93 in1013.5 mb 0.04 in1.0 mm 0.00 in0.0 mm 0.07 in1.8 mm
01:14 AM 64.2°F17.9°C 63.4°F17.4°C 97% 4.5 mph ESE7.2 kmh ESE 11.4 mph18.3 kmh 29.93 in1013.5 mb 0.04 in1.0 mm 0.00 in0.0 mm 0.07 in1.8 mm
01:13 AM 64.2°F17.9°C 63.4°F17.4°C 97% 5.4 mph ESE8.7 kmh ESE 11.4 mph18.3 kmh 29.92 in1013.2 mb 0.04 in1.0 mm 0.00 in0.0 mm 0.07 in1.8 mm
01:12 AM 64.2°F17.9°C 63.4°F17.4°C 97% 5.4 mph ESE8.7 kmh ESE 11.4 mph18.3 kmh 29.93 in1013.5 mb 0.04 in1.0 mm 0.00 in0.0 mm 0.07 in1.8 mm
01:11 AM 64.2°F17.9°C 63.4°F17.4°C 97% 7.6 mph SE12.2 kmh SE 11.4 mph18.3 kmh 29.92 in1013.2 mb 0.04 in1.0 mm 0.00 in0.0 mm 0.07 in1.8 mm
01:10 AM 64.2°F17.9°C 63.4°F17.4°C 97% 3.8 mph SE6.1 kmh SE 12.1 mph19.5 kmh 29.93 in1013.5 mb 0.04 in1.0 mm 0.00 in0.0 mm 0.07 in1.8 mm
01:09 AM 64.2°F17.9°C 63.4°F17.4°C 97% 5.4 mph SE8.7 kmh SE 13.0 mph20.9 kmh 29.93 in1013.5 mb 0.06 in1.5 mm 0.00 in0.0 mm 0.07 in1.8 mm
01:08 AM 64.2°F17.9°C 63.4°F17.4°C 97% 4.5 mph SE7.2 kmh SE 13.0 mph20.9 kmh 29.93 in1013.5 mb 0.07 in1.8 mm 0.00 in0.0 mm 0.07 in1.8 mm
01:07 AM 64.2°F17.9°C 63.4°F17.4°C 97% 4.5 mph SE7.2 kmh SE 13.0 mph20.9 kmh 29.93 in1013.5 mb 0.07 in1.8 mm 0.00 in0.0 mm 0.07 in1.8 mm
01:06 AM 64.2°F17.9°C 63.4°F17.4°C 97% 6.9 mph SE11.1 kmh SE 13.0 mph20.9 kmh 29.93 in1013.5 mb 0.07 in1.8 mm 0.00 in0.0 mm 0.07 in1.8 mm
01:05 AM 64.2°F17.9°C 63.4°F17.4°C 97% 3.1 mph ESE5.0 kmh ESE 14.5 mph23.3 kmh 29.93 in1013.5 mb 0.07 in1.8 mm 0.00 in0.0 mm 0.07 in1.8 mm
01:04 AM 64.2°F17.9°C 63.4°F17.4°C 97% 5.4 mph SE8.7 kmh SE 14.5 mph23.3 kmh 29.92 in1013.2 mb 0.07 in1.8 mm 0.00 in0.0 mm 0.07 in1.8 mm
01:03 AM 64.2°F17.9°C 63.4°F17.4°C 97% 5.4 mph ESE8.7 kmh ESE 14.5 mph23.3 kmh 29.93 in1013.5 mb 0.07 in1.8 mm 0.00 in0.0 mm 0.07 in1.8 mm
01:02 AM 64.2°F17.9°C 63.4°F17.4°C 97% 3.8 mph ESE6.1 kmh ESE 14.5 mph23.3 kmh 29.93 in1013.5 mb 0.07 in1.8 mm 0.00 in0.0 mm 0.07 in1.8 mm
01:01 AM 64.2°F17.9°C 63.4°F17.4°C 97% 7.6 mph ESE12.2 kmh ESE 14.5 mph23.3 kmh 29.93 in1013.5 mb 0.07 in1.8 mm 0.00 in0.0 mm 0.07 in1.8 mm
01:00 AM 64.2°F17.9°C 63.4°F17.4°C 97% 6.0 mph ESE9.7 kmh ESE 14.5 mph23.3 kmh 29.92 in1013.2 mb 0.07 in1.8 mm 0.00 in0.0 mm 0.07 in1.8 mm
12:59 AM 64.2°F17.9°C 63.4°F17.4°C 97% 6.0 mph ESE9.7 kmh ESE 14.5 mph23.3 kmh 29.93 in1013.5 mb 0.09 in2.3 mm 0.00 in0.0 mm 0.07 in1.8 mm
12:58 AM 64.2°F17.9°C 63.4°F17.4°C 97% 5.4 mph ESE8.7 kmh ESE 14.5 mph23.3 kmh 29.92 in1013.2 mb 0.09 in2.3 mm 1.20 in30.5 mm 0.07 in1.8 mm
12:57 AM 64.2°F17.9°C 63.4°F17.4°C 97% 6.9 mph ESE11.1 kmh ESE 14.5 mph23.3 kmh 29.93 in1013.5 mb 0.07 in1.8 mm 0.00 in0.0 mm 0.06 in1.5 mm
12:56 AM 64.2°F17.9°C 63.4°F17.4°C 97% 3.1 mph ESE5.0 kmh ESE 14.5 mph23.3 kmh 29.93 in1013.5 mb 0.07 in1.8 mm 0.00 in0.0 mm 0.06 in1.5 mm
12:55 AM 64.2°F17.9°C 63.4°F17.4°C 97% 7.6 mph ESE12.2 kmh ESE 13.6 mph21.9 kmh 29.93 in1013.5 mb 0.07 in1.8 mm 0.00 in0.0 mm 0.06 in1.5 mm
12:54 AM 64.2°F17.9°C 63.4°F17.4°C 97% 8.3 mph ESE13.4 kmh ESE 13.6 mph21.9 kmh 29.93 in1013.5 mb 0.07 in1.8 mm 0.00 in0.0 mm 0.06 in1.5 mm
12:53 AM 64.2°F17.9°C 63.4°F17.4°C 97% 5.4 mph ESE8.7 kmh ESE 13.6 mph21.9 kmh 29.93 in1013.5 mb 0.09 in2.3 mm 0.00 in0.0 mm 0.06 in1.5 mm
12:52 AM 64.2°F17.9°C 63.4°F17.4°C 97% 6.0 mph ESE9.7 kmh ESE 13.6 mph21.9 kmh 29.93 in1013.5 mb 0.09 in2.3 mm 0.00 in0.0 mm 0.06 in1.5 mm
12:51 AM 64.2°F17.9°C 63.4°F17.4°C 97% 4.5 mph ESE7.2 kmh ESE 13.6 mph21.9 kmh 29.93 in1013.5 mb 0.09 in2.3 mm 0.00 in0.0 mm 0.06 in1.5 mm
12:50 AM 64.2°F17.9°C 63.4°F17.4°C 97% 5.4 mph ESE8.7 kmh ESE 13.6 mph21.9 kmh 29.94 in1013.9 mb 0.09 in2.3 mm 0.00 in0.0 mm 0.06 in1.5 mm
12:49 AM 64.2°F17.9°C 63.4°F17.4°C 97% 6.0 mph ESE9.7 kmh ESE 15.2 mph24.5 kmh 29.93 in1013.5 mb 0.09 in2.3 mm 0.00 in0.0 mm 0.06 in1.5 mm
12:48 AM 64.2°F17.9°C 63.4°F17.4°C 97% 8.3 mph ESE13.4 kmh ESE 15.2 mph24.5 kmh 29.93 in1013.5 mb 0.09 in2.3 mm 0.00 in0.0 mm 0.06 in1.5 mm
12:47 AM 64.0°F17.8°C 63.2°F17.3°C 97% 6.9 mph ESE11.1 kmh ESE 15.2 mph24.5 kmh 29.94 in1013.9 mb 0.09 in2.3 mm 0.00 in0.0 mm 0.06 in1.5 mm
12:46 AM 64.0°F17.8°C 63.2°F17.3°C 97% 5.4 mph ESE8.7 kmh ESE 15.2 mph24.5 kmh 29.94 in1013.9 mb 0.09 in2.3 mm 0.00 in0.0 mm 0.06 in1.5 mm
12:45 AM 64.0°F17.8°C 63.2°F17.3°C 97% 3.8 mph E6.1 kmh E 15.2 mph24.5 kmh 29.94 in1013.9 mb 0.09 in2.3 mm 0.00 in0.0 mm 0.06 in1.5 mm
12:44 AM 64.0°F17.8°C 63.2°F17.3°C 97% 3.1 mph ESE5.0 kmh ESE 15.2 mph24.5 kmh 29.94 in1013.9 mb 0.09 in2.3 mm 0.00 in0.0 mm 0.06 in1.5 mm
12:43 AM 64.0°F17.8°C 63.2°F17.3°C 97% 3.1 mph ESE5.0 kmh ESE 15.2 mph24.5 kmh 29.95 in1014.2 mb 0.09 in2.3 mm 0.00 in0.0 mm 0.06 in1.5 mm
12:42 AM 64.0°F17.8°C 63.2°F17.3°C 97% 2.2 mph ESE3.5 kmh ESE 15.2 mph24.5 kmh 29.95 in1014.2 mb 0.09 in2.3 mm 0.00 in0.0 mm 0.06 in1.5 mm
12:41 AM 64.0°F17.8°C 63.2°F17.3°C 97% 3.8 mph SE6.1 kmh SE 15.2 mph24.5 kmh 29.94 in1013.9 mb 0.09 in2.3 mm 0.00 in0.0 mm 0.06 in1.5 mm
12:40 AM 64.0°F17.8°C 63.2°F17.3°C 97% 6.0 mph SE9.7 kmh SE 15.2 mph24.5 kmh 29.95 in1014.2 mb 0.09 in2.3 mm 0.00 in0.0 mm 0.06 in1.5 mm
12:39 AM 64.0°F17.8°C 63.2°F17.3°C 97% 3.8 mph SE6.1 kmh SE 11.4 mph18.3 kmh 29.94 in1013.9 mb 0.09 in2.3 mm 0.00 in0.0 mm 0.06 in1.5 mm
12:38 AM 64.0°F17.8°C 63.2°F17.3°C 97% 5.4 mph SE8.7 kmh SE 11.4 mph18.3 kmh 29.94 in1013.9 mb 0.09 in2.3 mm 0.00 in0.0 mm 0.06 in1.5 mm
12:37 AM 64.0°F17.8°C 63.2°F17.3°C 97% 3.8 mph SE6.1 kmh SE 11.4 mph18.3 kmh 29.94 in1013.9 mb 0.09 in2.3 mm 0.00 in0.0 mm 0.06 in1.5 mm
12:36 AM 64.0°F17.8°C 63.2°F17.3°C 97% 2.2 mph SE3.5 kmh SE 11.4 mph18.3 kmh 29.94 in1013.9 mb 0.09 in2.3 mm 0.00 in0.0 mm 0.06 in1.5 mm
12:35 AM 64.0°F17.8°C 63.2°F17.3°C 97% 5.4 mph SE8.7 kmh SE 11.4 mph18.3 kmh 29.95 in1014.2 mb 0.09 in2.3 mm 0.00 in0.0 mm 0.06 in1.5 mm
12:34 AM 64.0°F17.8°C 63.2°F17.3°C 97% 3.8 mph SE6.1 kmh SE 11.4 mph18.3 kmh 29.94 in1013.9 mb 0.09 in2.3 mm 0.00 in0.0 mm 0.06 in1.5 mm
12:33 AM 64.0°F17.8°C 63.2°F17.3°C 97% 6.0 mph SE9.7 kmh SE 11.4 mph18.3 kmh 29.95 in1014.2 mb 0.09 in2.3 mm 0.00 in0.0 mm 0.06 in1.5 mm
12:32 AM 64.0°F17.8°C 63.2°F17.3°C 97% 3.1 mph SE5.0 kmh SE 9.8 mph15.8 kmh 29.94 in1013.9 mb 0.09 in2.3 mm 0.00 in0.0 mm 0.06 in1.5 mm
12:31 AM 64.0°F17.8°C 63.2°F17.3°C 97% 4.5 mph ESE7.2 kmh ESE 12.1 mph19.5 kmh 29.95 in1014.2 mb 0.09 in2.3 mm 0.00 in0.0 mm 0.06 in1.5 mm
12:30 AM 64.0°F17.8°C 63.2°F17.3°C 97% 4.5 mph ESE7.2 kmh ESE 12.1 mph19.5 kmh 29.94 in1013.9 mb 0.09 in2.3 mm 0.00 in0.0 mm 0.06 in1.5 mm
12:29 AM 64.0°F17.8°C 63.2°F17.3°C 97% 5.4 mph ESE8.7 kmh ESE 13.6 mph21.9 kmh 29.94 in1013.9 mb 0.09 in2.3 mm 0.00 in0.0 mm 0.06 in1.5 mm
12:28 AM 64.0°F17.8°C 63.2°F17.3°C 97% 3.1 mph ESE5.0 kmh ESE 13.6 mph21.9 kmh 29.94 in1013.9 mb 0.09 in2.3 mm 0.00 in0.0 mm 0.06 in1.5 mm
12:27 AM 64.0°F17.8°C 63.2°F17.3°C 97% 2.2 mph ESE3.5 kmh ESE 13.6 mph21.9 kmh 29.94 in1013.9 mb 0.09 in2.3 mm 1.20 in30.5 mm 0.06 in1.5 mm
12:26 AM 64.0°F17.8°C 63.2°F17.3°C 97% 1.6 mph ESE2.6 kmh ESE 13.6 mph21.9 kmh 29.95 in1014.2 mb 0.07 in1.8 mm 0.00 in0.0 mm 0.04 in1.0 mm
12:25 AM 64.0°F17.8°C 63.2°F17.3°C 97% 2.2 mph ESE3.5 kmh ESE 13.6 mph21.9 kmh 29.95 in1014.2 mb 0.07 in1.8 mm 0.00 in0.0 mm 0.04 in1.0 mm
12:24 AM 64.0°F17.8°C 63.2°F17.3°C 97% 4.5 mph ESE7.2 kmh ESE 13.6 mph21.9 kmh 29.95 in1014.2 mb 0.07 in1.8 mm 0.00 in0.0 mm 0.04 in1.0 mm
12:23 AM 64.0°F17.8°C 63.2°F17.3°C 97% 3.8 mph SE6.1 kmh SE 13.6 mph21.9 kmh 29.95 in1014.2 mb 0.07 in1.8 mm 0.00 in0.0 mm 0.04 in1.0 mm
12:22 AM 64.0°F17.8°C 63.2°F17.3°C 97% 3.1 mph SE5.0 kmh SE 13.6 mph21.9 kmh 29.94 in1013.9 mb 0.09 in2.3 mm 0.00 in0.0 mm 0.04 in1.0 mm
12:21 AM 64.0°F17.8°C 63.2°F17.3°C 97% 6.0 mph SE9.7 kmh SE 13.6 mph21.9 kmh 29.95 in1014.2 mb 0.09 in2.3 mm 0.00 in0.0 mm 0.04 in1.0 mm
12:20 AM 64.0°F17.8°C 63.2°F17.3°C 97% 6.9 mph SE11.1 kmh SE 13.6 mph21.9 kmh 29.95 in1014.2 mb 0.09 in2.3 mm 0.00 in0.0 mm 0.04 in1.0 mm
12:19 AM 64.0°F17.8°C 63.2°F17.3°C 97% 5.4 mph ESE8.7 kmh ESE 13.6 mph21.9 kmh 29.94 in1013.9 mb 0.09 in2.3 mm 0.00 in0.0 mm 0.04 in1.0 mm
12:18 AM 64.0°F17.8°C 63.2°F17.3°C 97% 3.8 mph ESE6.1 kmh ESE 13.0 mph20.9 kmh 29.94 in1013.9 mb 0.09 in2.3 mm 1.20 in30.5 mm 0.04 in1.0 mm
12:17 AM 64.0°F17.8°C 63.2°F17.3°C 97% 3.8 mph ESE6.1 kmh ESE 13.0 mph20.9 kmh 29.94 in1013.9 mb 0.07 in1.8 mm 0.00 in0.0 mm 0.03 in0.8 mm
12:16 AM 64.0°F17.8°C 63.2°F17.3°C 97% 5.4 mph ESE8.7 kmh ESE 13.0 mph20.9 kmh 29.94 in1013.9 mb 0.09 in2.3 mm 0.00 in0.0 mm 0.03 in0.8 mm
12:15 AM 64.0°F17.8°C 63.2°F17.3°C 97% 5.4 mph ESE8.7 kmh ESE 13.0 mph20.9 kmh 29.94 in1013.9 mb 0.09 in2.3 mm 0.00 in0.0 mm 0.03 in0.8 mm
12:14 AM 64.0°F17.8°C 63.2°F17.3°C 97% 6.9 mph E11.1 kmh E 13.0 mph20.9 kmh 29.95 in1014.2 mb 0.09 in2.3 mm 0.00 in0.0 mm 0.03 in0.8 mm
12:13 AM 64.0°F17.8°C 63.2°F17.3°C 97% 6.9 mph E11.1 kmh E 13.0 mph20.9 kmh 29.95 in1014.2 mb 0.09 in2.3 mm 0.00 in0.0 mm 0.03 in0.8 mm
12:12 AM 64.0°F17.8°C 63.2°F17.3°C 97% 3.8 mph E6.1 kmh E 13.6 mph21.9 kmh 29.95 in1014.2 mb 0.09 in2.3 mm 0.00 in0.0 mm 0.03 in0.8 mm
12:11 AM 64.0°F17.8°C 63.2°F17.3°C 97% 2.2 mph E3.5 kmh E 13.6 mph21.9 kmh 29.95 in1014.2 mb 0.09 in2.3 mm 0.00 in0.0 mm 0.03 in0.8 mm
12:10 AM 64.0°F17.8°C 63.2°F17.3°C 97% 3.8 mph E6.1 kmh E 13.6 mph21.9 kmh 29.96 in1014.6 mb 0.10 in2.5 mm 0.60 in15.2 mm 0.03 in0.8 mm
12:09 AM 64.0°F17.8°C 63.2°F17.3°C 97% 6.0 mph ESE9.7 kmh ESE 13.6 mph21.9 kmh 29.95 in1014.2 mb 0.09 in2.3 mm 0.00 in0.0 mm 0.01 in0.3 mm
12:08 AM 64.0°F17.8°C 63.2°F17.3°C 97% 5.4 mph ESE8.7 kmh ESE 13.6 mph21.9 kmh 29.95 in1014.2 mb 0.09 in2.3 mm 0.00 in0.0 mm 0.09 in2.3 mm
12:07 AM 64.0°F17.8°C 63.2°F17.3°C 97% 4.5 mph ESE7.2 kmh ESE 13.6 mph21.9 kmh 29.94 in1013.9 mb 0.09 in2.3 mm 0.00 in0.0 mm 0.09 in2.3 mm
12:06 AM 64.0°F17.8°C 63.2°F17.3°C 97% 7.6 mph ESE12.2 kmh ESE 13.6 mph21.9 kmh 29.94 in1013.9 mb 0.09 in2.3 mm 0.00 in0.0 mm 0.09 in2.3 mm
12:05 AM 64.0°F17.8°C 63.2°F17.3°C 97% 6.0 mph ESE9.7 kmh ESE 13.6 mph21.9 kmh 29.94 in1013.9 mb 0.09 in2.3 mm 0.00 in0.0 mm 0.09 in2.3 mm
12:04 AM 64.0°F17.8°C 63.2°F17.3°C 97% 4.5 mph ESE7.2 kmh ESE 13.6 mph21.9 kmh 29.94 in1013.9 mb 0.09 in2.3 mm 0.00 in0.0 mm 0.09 in2.3 mm
12:03 AM 64.0°F17.8°C 63.2°F17.3°C 97% 6.9 mph ESE11.1 kmh ESE 13.6 mph21.9 kmh 29.94 in1013.9 mb 0.09 in2.3 mm 0.00 in0.0 mm 0.09 in2.3 mm
12:02 AM 63.9°F17.7°C 63.0°F17.2°C 97% 9.8 mph ESE15.8 kmh ESE 13.6 mph21.9 kmh 29.94 in1013.9 mb 0.09 in2.3 mm 0.00 in0.0 mm 0.09 in2.3 mm
12:01 AM 63.9°F17.7°C 63.0°F17.2°C 97% 5.4 mph ESE8.7 kmh ESE 10.7 mph17.2 kmh 29.94 in1013.9 mb 0.09 in2.3 mm 0.00 in0.0 mm 0.09 in2.3 mm
12:00 AM 63.9°F17.7°C 63.0°F17.2°C 97% 5.4 mph SE8.7 kmh SE 10.7 mph17.2 kmh 29.96 in1014.6 mb 0.09 in2.3 mm 0.00 in0.0 mm 0.09 in2.3 mm